Time;durP1;ratioP1;P1;durP2;ratioP2;P2;SDS_P1;SDS_P2;PMS_P1;PMS_P2;Temp;Humidity;BMP_temperature;BMP_pressure;BME280_temperature;BME280_humidity;BME280_pressure;Samples;Min_cycle;Max_cycle;Signal;HPM_P1;HPM_P2
2023/08/08 04:30:57;;;;;;;0.00;0.00;;;16.00;77.10;;;;;;5580967;23;20127;-78
2023/08/08 04:33:23;;;;;;;0.10;0.10;;;16.00;77.50;;;;;;4874014;29;20499;-78
2023/08/08 04:35:49;;;;;;;0.05;0.05;;;16.00;77.70;;;;;;4884360;29;20025;-78
2023/08/08 04:38:18;;;;;;;0.10;0.10;;;15.90;77.60;;;;;;4883982;29;20044;-78
2023/08/08 04:40:43;;;;;;;0.00;0.00;;;16.00;77.40;;;;;;4884332;29;20049;-78
2023/08/08 04:43:09;;;;;;;0.10;0.10;;;16.00;77.30;;;;;;4884166;29;20496;-78
2023/08/08 04:45:35;;;;;;;0.10;0.10;;;15.90;77.70;;;;;;4882797;29;20028;-78
2023/08/08 04:48:00;;;;;;;0.00;0.00;;;15.80;77.60;;;;;;4884031;29;20036;-78
2023/08/08 04:50:26;;;;;;;0.10;0.10;;;15.80;77.80;;;;;;4884314;29;20025;-78
2023/08/08 04:52:51;;;;;;;0.00;0.00;;;15.80;77.90;;;;;;4884010;29;20025;-78
2023/08/08 04:55:17;;;;;;;0.00;0.00;;;15.80;77.80;;;;;;4867177;29;20492;-78
2023/08/08 04:57:43;;;;;;;0.10;0.10;;;15.80;77.60;;;;;;4883951;29;20033;-78
2023/08/08 05:00:09;;;;;;;0.10;0.10;;;15.80;77.40;;;;;;4889281;29;20029;-78
2023/08/08 05:02:35;;;;;;;0.00;0.00;;;15.80;77.30;;;;;;4902755;29;20084;-78
2023/08/08 05:05:01;;;;;;;0.10;0.10;;;15.80;77.50;;;;;;4903091;29;20028;-78
2023/08/08 05:07:27;;;;;;;0.00;0.00;;;15.70;77.80;;;;;;4885653;29;20029;-78
2023/08/08 05:09:53;;;;;;;0.00;0.00;;;15.70;78.00;;;;;;4902689;29;20100;-78
2023/08/08 05:12:18;;;;;;;0.10;0.10;;;15.70;78.10;;;;;;4905004;29;20051;-78
2023/08/08 05:14:44;;;;;;;0.03;0.03;;;15.70;77.80;;;;;;4902707;29;20028;-78
2023/08/08 05:17:10;;;;;;;0.00;0.00;;;15.70;78.20;;;;;;4902628;29;20067;-78
2023/08/08 05:19:35;;;;;;;0.05;0.05;;;15.70;78.10;;;;;;4902152;29;20021;-78
2023/08/08 05:22:01;;;;;;;0.10;0.03;;;15.70;78.20;;;;;;4902514;29;20060;-78
2023/08/08 05:24:26;;;;;;;0.00;0.00;;;15.70;78.00;;;;;;4902664;29;20032;-78
2023/08/08 05:26:53;;;;;;;0.10;0.10;;;15.70;78.20;;;;;;4902604;29;20396;-78
2023/08/08 05:29:19;;;;;;;0.00;0.00;;;15.70;78.10;;;;;;4902555;29;20704;-79
2023/08/08 05:31:45;;;;;;;0.00;0.00;;;15.80;78.30;;;;;;4902477;29;20061;-78
2023/08/08 05:34:11;;;;;;;0.00;0.00;;;15.70;78.30;;;;;;4902555;29;20111;-79
2023/08/08 05:36:36;;;;;;;0.10;0.10;;;15.70;78.50;;;;;;4902505;29;20059;-78
2023/08/08 05:39:03;;;;;;;0.00;0.00;;;15.80;78.50;;;;;;4902489;29;20024;-78
2023/08/08 05:41:29;;;;;;;0.10;0.10;;;15.70;78.50;;;;;;4902497;29;20028;-78
2023/08/08 05:43:54;;;;;;;0.10;0.10;;;15.80;78.60;;;;;;4903397;29;20535;-78
2023/08/08 05:46:20;;;;;;;0.03;0.03;;;15.70;78.30;;;;;;4906363;29;20028;-78
2023/08/08 05:48:46;;;;;;;0.00;0.00;;;15.80;78.60;;;;;;4906443;29;20028;-78
2023/08/08 05:51:12;;;;;;;0.10;0.10;;;15.70;78.70;;;;;;4906338;29;20480;-78
2023/08/08 05:53:38;;;;;;;0.00;0.00;;;15.70;78.80;;;;;;4906274;29;20396;-78
2023/08/08 05:56:04;;;;;;;0.00;0.00;;;15.80;78.70;;;;;;4889220;29;20392;-78
2023/08/08 05:58:30;;;;;;;0.05;0.05;;;15.80;78.60;;;;;;4906053;29;20483;-78
2023/08/08 06:00:55;;;;;;;0.00;0.00;;;15.80;78.40;;;;;;4889069;29;20079;-78
2023/08/08 06:03:21;;;;;;;0.10;0.10;;;15.90;78.60;;;;;;4905748;29;20461;-78
2023/08/08 06:05:47;;;;;;;0.20;0.20;;;15.90;78.40;;;;;;4906060;29;20028;-78
2023/08/08 06:08:13;;;;;;;0.10;0.10;;;15.90;78.50;;;;;;4905738;29;20028;-78
2023/08/08 06:10:39;;;;;;;0.10;0.10;;;16.00;78.80;;;;;;4906003;29;20016;-78
2023/08/08 06:13:05;;;;;;;0.10;0.10;;;16.00;78.50;;;;;;4905622;29;20016;-79
2023/08/08 06:15:30;;;;;;;0.00;0.00;;;16.00;78.80;;;;;;4905767;29;20035;-78
2023/08/08 06:17:57;;;;;;;0.10;0.10;;;16.00;78.70;;;;;;4905773;29;20492;-78
2023/08/08 06:20:22;;;;;;;0.10;0.10;;;16.00;78.50;;;;;;4888667;29;20056;-78
2023/08/08 06:22:48;;;;;;;0.10;0.10;;;16.00;78.80;;;;;;4905304;29;20412;-78
2023/08/08 06:25:14;;;;;;;0.10;0.10;;;16.10;79.00;;;;;;4905838;29;20120;-78
2023/08/08 06:27:40;;;;;;;0.10;0.10;;;16.10;79.00;;;;;;4888748;29;20064;-78
2023/08/08 06:30:08;;;;;;;0.10;0.10;;;16.10;78.50;;;;;;4905942;29;20039;-78
2023/08/08 06:32:34;;;;;;;0.00;0.00;;;16.20;78.70;;;;;;4905552;29;20096;-78
2023/08/08 06:35:00;;;;;;;0.05;0.05;;;16.20;78.70;;;;;;4905512;29;20035;-78
2023/08/08 06:37:25;;;;;;;0.10;0.10;;;16.20;78.30;;;;;;4888745;29;20029;-78
2023/08/08 06:39:51;;;;;;;0.10;0.10;;;16.30;78.30;;;;;;4905379;29;20025;-78
2023/08/08 06:42:17;;;;;;;0.10;0.10;;;16.30;78.50;;;;;;4905440;29;20036;-78
2023/08/08 06:44:43;;;;;;;0.00;0.00;;;16.30;78.10;;;;;;4905416;29;20028;-78
2023/08/08 06:47:09;;;;;;;0.10;0.10;;;16.30;78.10;;;;;;4905411;29;20029;-78
2023/08/08 06:49:35;;;;;;;0.00;0.00;;;16.40;77.90;;;;;;4905476;29;20040;-78
2023/08/08 06:52:00;;;;;;;0.00;0.00;;;16.50;77.90;;;;;;4888331;29;20058;-79
2023/08/08 06:54:28;;;;;;;0.10;0.10;;;16.50;77.50;;;;;;4904760;29;20029;-78
2023/08/08 06:56:56;;;;;;;0.10;0.10;;;16.60;77.30;;;;;;4905164;29;20035;-78
2023/08/08 06:59:22;;;;;;;0.00;0.00;;;16.50;77.30;;;;;;4905126;29;20100;-78
2023/08/08 07:01:48;;;;;;;0.10;0.10;;;16.60;77.00;;;;;;4903528;29;20029;-78
2023/08/08 07:04:14;;;;;;;0.10;0.10;;;16.70;77.00;;;;;;4904916;29;20499;-78
2023/08/08 07:06:40;;;;;;;0.10;0.10;;;16.80;76.90;;;;;;4904842;29;20051;-78
2023/08/08 07:09:08;;;;;;;0.00;0.00;;;16.80;76.60;;;;;;4903536;29;20115;-78
2023/08/08 07:11:37;;;;;;;0.10;0.10;;;16.90;76.30;;;;;;4887587;29;20115;-78
2023/08/08 07:14:03;;;;;;;0.10;0.10;;;17.00;76.20;;;;;;4887916;29;20031;-78
2023/08/08 07:16:29;;;;;;;0.10;0.10;;;17.30;75.80;;;;;;4887705;29;20036;-78
2023/08/08 07:18:55;;;;;;;0.10;0.10;;;17.50;75.60;;;;;;4904495;29;20028;-78
2023/08/08 07:21:20;;;;;;;0.20;0.20;;;18.20;74.30;;;;;;4889667;29;20075;-78
2023/08/08 07:23:46;;;;;;;0.22;0.22;;;19.80;70.50;;;;;;4904695;29;20019;-76
2023/08/08 07:26:12;;;;;;;0.20;0.20;;;21.30;65.60;;;;;;4904743;29;20036;-76
2023/08/08 07:28:38;;;;;;;0.20;0.20;;;22.60;61.30;;;;;;4904282;29;20091;-76
2023/08/08 07:31:04;;;;;;;0.10;0.10;;;23.80;57.10;;;;;;4904213;29;20096;-77
2023/08/08 07:33:30;;;;;;;0.10;0.10;;;24.50;55.10;;;;;;4904337;29;20103;-77
2023/08/08 07:35:55;;;;;;;0.20;0.20;;;25.50;52.00;;;;;;4904779;29;20509;-77
2023/08/08 07:38:21;;;;;;;0.17;0.17;;;26.80;48.20;;;;;;4904111;29;20388;-77
2023/08/08 07:40:47;;;;;;;0.00;0.00;;;28.50;46.00;;;;;;4904258;29;20552;-77
2023/08/08 07:43:13;;;;;;;0.10;0.10;;;28.00;43.90;;;;;;4887458;29;20028;-77
2023/08/08 07:45:39;;;;;;;0.20;0.20;;;27.60;45.00;;;;;;4904384;29;20056;-77
2023/08/08 07:48:05;;;;;;;0.20;0.20;;;27.20;45.80;;;;;;4887431;29;20064;-77
2023/08/08 07:50:31;;;;;;;0.20;0.20;;;27.40;44.60;;;;;;4903494;29;20029;-77
2023/08/08 07:52:56;;;;;;;0.10;0.10;;;27.40;45.30;;;;;;4904077;29;20025;-78
2023/08/08 07:55:22;;;;;;;0.00;0.00;;;27.30;45.30;;;;;;4904232;29;20029;-78
2023/08/08 07:57:47;;;;;;;0.10;0.10;;;26.60;46.60;;;;;;4904274;29;20036;-78
2023/08/08 08:00:14;;;;;;;0.00;0.00;;;26.20;47.40;;;;;;4903773;29;20539;-78
2023/08/08 08:02:43;;;;;;;0.10;0.10;;;25.50;48.10;;;;;;4887077;29;20037;-78
2023/08/08 08:05:09;;;;;;;0.10;0.10;;;25.00;49.30;;;;;;4903856;29;20052;-78
2023/08/08 08:07:35;;;;;;;0.10;0.10;;;25.70;49.00;;;;;;4902964;29;20475;-78
2023/08/08 08:10:06;;;;;;;0.10;0.10;;;26.90;46.10;;;;;;4903871;29;20031;-78
2023/08/08 08:12:32;;;;;;;0.20;0.20;;;27.50;44.00;;;;;;4903855;29;20436;-78
2023/08/08 08:14:58;;;;;;;0.35;0.35;;;28.40;42.40;;;;;;4903733;29;20036;-78
2023/08/08 08:17:24;;;;;;;0.30;0.30;;;29.60;40.50;;;;;;4903585;29;20036;-79
2023/08/08 08:19:51;;;;;;;0.20;0.20;;;30.30;38.30;;;;;;4886204;29;20028;-79
2023/08/08 08:22:17;;;;;;;0.10;0.10;;;29.90;39.10;;;;;;4903541;29;20100;-79
2023/08/08 08:24:42;;;;;;;0.30;0.30;;;29.10;40.10;;;;;;4903567;29;20048;-78
2023/08/08 08:27:08;;;;;;;0.28;0.28;;;29.70;39.90;;;;;;4903347;29;20060;-79
2023/08/08 08:29:33;;;;;;;0.30;0.30;;;30.50;37.40;;;;;;4903468;29;20052;-79
2023/08/08 08:31:59;;;;;;;0.30;0.30;;;30.90;37.50;;;;;;4903199;29;20049;-79
2023/08/08 08:34:26;;;;;;;0.40;0.40;;;31.20;37.30;;;;;;4886564;29;20049;-79
2023/08/08 08:36:52;;;;;;;0.50;0.50;;;32.20;35.90;;;;;;4903118;29;20031;-79
2023/08/08 08:39:17;;;;;;;0.50;0.50;;;32.70;35.00;;;;;;4903153;29;20075;-79
2023/08/08 08:41:48;;;;;;;0.70;0.70;;;33.00;34.20;;;;;;4903218;29;20025;-79
2023/08/08 08:44:15;;;;;;;0.40;0.40;;;33.20;33.70;;;;;;4903103;29;20446;-79
2023/08/08 08:46:42;;;;;;;0.50;0.50;;;33.30;34.20;;;;;;4903001;29;20036;-79
2023/08/08 08:49:09;;;;;;;0.40;0.40;;;33.10;33.70;;;;;;4901736;29;20029;-79
2023/08/08 08:51:36;;;;;;;0.10;0.10;;;32.50;34.70;;;;;;4903027;29;20028;-79
2023/08/08 08:54:02;;;;;;;0.10;0.10;;;30.80;35.50;;;;;;4886161;29;20110;-79
2023/08/08 08:56:28;;;;;;;0.00;0.00;;;29.60;37.80;;;;;;4903024;29;20035;-78
2023/08/08 08:58:54;;;;;;;0.00;0.00;;;28.40;40.40;;;;;;4902838;29;20036;-78
2023/08/08 09:01:23;;;;;;;0.00;0.00;;;27.50;42.30;;;;;;4902769;29;20025;-78
2023/08/08 09:03:49;;;;;;;0.10;0.10;;;27.20;44.60;;;;;;4902569;29;20463;-78
2023/08/08 09:06:16;;;;;;;0.25;0.25;;;27.10;45.00;;;;;;4903081;29;20076;-78
2023/08/08 09:08:42;;;;;;;0.20;0.20;;;27.30;44.70;;;;;;4902899;29;20036;-78
2023/08/08 09:11:08;;;;;;;0.05;0.05;;;27.80;43.30;;;;;;4902836;29;20502;-78
2023/08/08 09:13:40;;;;;;;0.10;0.10;;;27.90;41.70;;;;;;4887868;29;20024;-78
2023/08/08 09:16:08;;;;;;;0.00;0.00;;;27.60;42.60;;;;;;4902889;29;20088;-78
2023/08/08 09:18:38;;;;;;;0.00;0.00;;;27.90;42.60;;;;;;4902243;29;20032;-78
2023/08/08 09:21:06;;;;;;;0.00;0.00;;;27.40;42.80;;;;;;4902671;29;20024;-78
2023/08/08 09:23:32;;;;;;;0.40;0.40;;;26.80;43.90;;;;;;4902369;29;20039;-78
2023/08/08 09:25:58;;;;;;;0.40;0.40;;;28.30;43.00;;;;;;4902561;29;20029;-78
2023/08/08 09:28:24;;;;;;;0.00;0.00;;;29.40;39.50;;;;;;4885626;29;20527;-78
2023/08/08 09:30:50;;;;;;;0.00;0.00;;;29.00;39.80;;;;;;4902102;29;20072;-78
2023/08/08 09:33:17;;;;;;;0.00;0.00;;;27.80;42.00;;;;;;4906943;29;20846;-78
2023/08/08 09:35:43;;;;;;;0.45;0.45;;;26.90;43.50;;;;;;4902486;29;20053;-77
2023/08/08 09:38:09;;;;;;;0.20;0.20;;;27.10;44.00;;;;;;4902242;29;20472;-78
2023/08/08 09:40:35;;;;;;;0.38;0.38;;;26.60;44.10;;;;;;4885454;29;20029;-78
2023/08/08 09:43:00;;;;;;;0.47;0.47;;;27.80;42.80;;;;;;4902294;29;20029;-78
2023/08/08 09:45:26;;;;;;;0.20;0.20;;;29.50;40.10;;;;;;4902448;29;20024;-78
2023/08/08 09:47:52;;;;;;;0.10;0.10;;;30.30;39.00;;;;;;4901841;29;20480;-78
2023/08/08 09:50:19;;;;;;;0.95;0.95;;;30.40;37.80;;;;;;4885438;29;20029;-78
2023/08/08 09:52:46;;;;;;;0.30;0.30;;;30.40;37.40;;;;;;4902159;29;20037;-78
2023/08/08 09:55:12;;;;;;;0.40;0.40;;;30.20;37.60;;;;;;4902338;29;20029;-78
2023/08/08 09:57:41;;;;;;;0.40;0.40;;;30.20;37.70;;;;;;4902333;29;20044;-78
2023/08/08 10:00:11;;;;;;;0.50;0.50;;;30.70;37.20;;;;;;4884960;29;20397;-78
2023/08/08 10:02:37;;;;;;;0.60;0.60;;;30.80;37.20;;;;;;4902123;29;20020;-78
2023/08/08 10:05:06;;;;;;;0.60;0.60;;;30.80;36.90;;;;;;4902254;29;20032;-79
2023/08/08 10:07:31;;;;;;;0.60;0.60;;;30.70;36.50;;;;;;4902160;29;20104;-78
2023/08/08 10:09:59;;;;;;;0.68;0.68;;;31.00;37.10;;;;;;4902135;29;20116;-78
2023/08/08 10:12:26;;;;;;;0.60;0.60;;;31.40;35.40;;;;;;4902229;29;20124;-78
2023/08/08 10:14:52;;;;;;;0.70;0.70;;;31.70;35.10;;;;;;4902262;29;20061;-78
2023/08/08 10:17:18;;;;;;;0.50;0.50;;;31.90;34.00;;;;;;4897018;29;20512;-78
2023/08/08 10:19:57;;;;;;;0.10;0.10;;;31.30;34.80;;;;;;4896393;29;20518;-79
2023/08/08 10:22:24;;;;;;;0.50;0.50;;;30.40;35.30;;;;;;4902043;29;20029;-78
2023/08/08 10:24:54;;;;;;;1.23;1.23;;;30.30;35.60;;;;;;4902098;29;20028;-78
2023/08/08 10:27:36;;;;;;;0.50;0.50;;;30.30;36.00;;;;;;4901998;29;20029;-78
2023/08/08 10:30:04;;;;;;;0.40;0.40;;;30.30;38.30;;;;;;4903462;29;20052;-78
2023/08/08 10:32:39;;;;;;;3.05;2.95;;;30.30;38.80;;;;;;4905316;29;20500;-78
2023/08/08 10:35:06;;;;;;;0.10;0.10;;;30.00;37.00;;;;;;4905486;29;20060;-78
2023/08/08 10:37:32;;;;;;;0.00;0.00;;;29.30;37.70;;;;;;4905403;29;20056;-78
2023/08/08 10:40:00;;;;;;;0.00;0.00;;;28.70;38.40;;;;;;4905284;29;20067;-78
2023/08/08 10:42:30;;;;;;;0.00;0.00;;;28.10;38.90;;;;;;4905411;29;20025;-78
2023/08/08 10:44:58;;;;;;;0.00;0.00;;;27.80;40.90;;;;;;4905340;29;20020;-78
2023/08/08 10:47:36;;;;;;;0.00;0.00;;;27.30;42.90;;;;;;4888383;29;20033;-78
2023/08/08 10:50:06;;;;;;;0.00;0.00;;;26.90;42.40;;;;;;4905346;29;20137;-78
2023/08/08 10:52:35;;;;;;;0.00;0.00;;;26.80;42.20;;;;;;4905140;29;20067;-78
2023/08/08 10:55:01;;;;;;;0.00;0.00;;;26.30;43.00;;;;;;4905312;29;20111;-79
2023/08/08 10:57:27;;;;;;;0.00;0.00;;;25.90;44.20;;;;;;4905128;29;20032;-78
2023/08/08 10:59:54;;;;;;;0.00;0.00;;;25.80;45.30;;;;;;4904996;29;20490;-78
2023/08/08 11:02:20;;;;;;;0.00;0.00;;;25.70;42.80;;;;;;4904971;29;20436;-78
2023/08/08 11:04:47;;;;;;;0.00;0.00;;;25.60;44.30;;;;;;4907145;29;20031;-78
2023/08/08 11:07:15;;;;;;;0.00;0.00;;;25.50;44.30;;;;;;4904800;29;20032;-78
2023/08/08 11:09:41;;;;;;;0.00;0.00;;;25.40;46.80;;;;;;4905080;29;20563;-78
2023/08/08 11:12:14;;;;;;;0.00;0.00;;;25.30;45.90;;;;;;4904837;29;20054;-79
2023/08/08 11:14:39;;;;;;;0.00;0.00;;;25.50;46.00;;;;;;4905019;29;20029;-78
2023/08/08 11:17:05;;;;;;;0.10;0.10;;;25.50;44.80;;;;;;4904754;29;20068;-78
2023/08/08 11:19:31;;;;;;;0.00;0.00;;;25.40;46.40;;;;;;4904603;29;20633;-78
2023/08/08 11:21:57;;;;;;;0.00;0.00;;;25.30;45.40;;;;;;4904719;29;20555;-77
2023/08/08 11:24:23;;;;;;;0.00;0.00;;;25.40;44.90;;;;;;4887851;29;20033;-77
2023/08/08 11:26:49;;;;;;;0.00;0.00;;;25.50;45.20;;;;;;4887591;29;20092;-77
2023/08/08 11:29:15;;;;;;;0.00;0.00;;;25.60;45.90;;;;;;4888024;29;20071;-77
2023/08/08 11:31:41;;;;;;;0.00;0.00;;;25.60;46.80;;;;;;4887410;29;20515;-77
2023/08/08 11:34:10;;;;;;;0.00;0.00;;;25.50;45.90;;;;;;4904605;29;20032;-77
2023/08/08 11:36:36;;;;;;;0.00;0.00;;;25.50;45.80;;;;;;4903957;29;20060;-77
2023/08/08 11:39:10;;;;;;;0.00;0.00;;;25.40;46.40;;;;;;4904360;29;20391;-78
2023/08/08 11:41:37;;;;;;;0.00;0.00;;;25.30;45.80;;;;;;4904368;29;20029;-77
2023/08/08 11:44:04;;;;;;;0.00;0.00;;;25.30;44.30;;;;;;4904453;29;20499;-78
2023/08/08 11:46:30;;;;;;;0.00;0.00;;;25.30;45.50;;;;;;4904395;29;20497;-78
2023/08/08 11:49:06;;;;;;;0.00;0.00;;;25.40;47.70;;;;;;4904279;29;20021;-78
2023/08/08 11:51:33;;;;;;;0.00;0.00;;;25.40;46.50;;;;;;4904104;29;20025;-78
2023/08/08 11:54:00;;;;;;;0.00;0.00;;;25.40;46.00;;;;;;4904006;29;20029;-78
2023/08/08 11:56:26;;;;;;;0.10;0.10;;;25.50;47.50;;;;;;4903678;29;20514;-78
2023/08/08 11:58:52;;;;;;;0.00;0.00;;;25.60;46.80;;;;;;4904171;29;20057;-77
2023/08/08 12:01:25;;;;;;;0.00;0.00;;;25.50;47.10;;;;;;4903802;29;20039;-77
2023/08/08 12:03:51;;;;;;;0.00;0.00;;;25.20;45.30;;;;;;4903730;29;20361;-78
2023/08/08 12:06:18;;;;;;;0.03;0.03;;;25.20;46.40;;;;;;4903996;29;20088;-77
2023/08/08 12:08:45;;;;;;;0.00;0.00;;;25.30;46.40;;;;;;4886907;29;20020;-78
2023/08/08 12:11:12;;;;;;;0.10;0.10;;;25.40;47.70;;;;;;4904113;29;20538;-78
2023/08/08 12:13:43;;;;;;;0.00;0.00;;;25.30;48.40;;;;;;4886795;29;20060;-78
2023/08/08 12:16:10;;;;;;;0.00;0.00;;;25.30;47.10;;;;;;4903948;29;20029;-78
2023/08/08 12:18:40;;;;;;;0.05;0.05;;;25.30;46.70;;;;;;4903509;29;20025;-78
2023/08/08 12:21:07;;;;;;;0.10;0.10;;;25.40;46.90;;;;;;4903789;29;20059;-78
2023/08/08 12:23:33;;;;;;;0.00;0.00;;;25.40;49.50;;;;;;4903617;29;20498;-78
2023/08/08 12:25:59;;;;;;;0.10;0.10;;;25.50;47.70;;;;;;4886616;29;20032;-77
2023/08/08 12:28:25;;;;;;;0.00;0.00;;;25.50;46.30;;;;;;4903533;29;20035;-77
2023/08/08 12:30:51;;;;;;;0.00;0.00;;;25.50;47.00;;;;;;4903320;29;20055;-78
2023/08/08 12:33:17;;;;;;;0.03;0.03;;;25.50;48.60;;;;;;4886267;29;20029;-78
2023/08/08 12:35:42;;;;;;;0.10;0.10;;;25.50;47.80;;;;;;4903689;29;20025;-77
2023/08/08 12:38:10;;;;;;;0.00;0.00;;;25.50;48.00;;;;;;4886375;29;20028;-77
2023/08/08 12:40:35;;;;;;;0.00;0.00;;;25.60;48.90;;;;;;4903275;29;20028;-77
2023/08/08 12:43:01;;;;;;;0.08;0.08;;;25.30;49.00;;;;;;4903103;29;20025;-77
2023/08/08 12:45:27;;;;;;;0.10;0.10;;;25.30;49.10;;;;;;4903122;29;20056;-77
2023/08/08 12:47:52;;;;;;;0.03;0.03;;;25.40;49.40;;;;;;4903218;29;20035;-78
2023/08/08 12:50:18;;;;;;;0.10;0.10;;;25.60;49.20;;;;;;4903263;29;20037;-78
2023/08/08 12:52:44;;;;;;;0.10;0.10;;;25.50;48.60;;;;;;4902591;29;20080;-77
2023/08/08 12:55:11;;;;;;;0.30;0.10;;;25.70;49.30;;;;;;4905175;29;20033;-77
2023/08/08 12:57:37;;;;;;;0.00;0.00;;;25.80;49.80;;;;;;4903012;29;20025;-77
2023/08/08 13:00:03;;;;;;;0.00;0.00;;;26.00;49.90;;;;;;4902829;29;20060;-78
2023/08/08 13:02:29;;;;;;;0.10;0.10;;;25.80;49.60;;;;;;4902638;29;20024;-77
2023/08/08 13:04:55;;;;;;;0.00;0.00;;;25.80;49.30;;;;;;4903017;29;20034;-77
2023/08/08 13:07:20;;;;;;;0.00;0.00;;;25.70;48.80;;;;;;4902428;29;20029;-77
2023/08/08 13:09:46;;;;;;;0.00;0.00;;;25.70;49.80;;;;;;4885906;29;20028;-78
2023/08/08 13:12:12;;;;;;;0.08;0.08;;;25.70;48.70;;;;;;4902621;29;20040;-77
2023/08/08 13:14:37;;;;;;;0.00;0.00;;;25.80;49.70;;;;;;4902916;29;20028;-77
2023/08/08 13:17:03;;;;;;;0.00;0.00;;;25.80;49.10;;;;;;4902679;29;20104;-78
2023/08/08 13:19:29;;;;;;;0.00;0.00;;;25.80;48.80;;;;;;4885458;29;20550;-77
2023/08/08 13:21:55;;;;;;;0.10;0.10;;;25.90;48.80;;;;;;4902511;29;20034;-77
2023/08/08 13:24:22;;;;;;;0.00;0.00;;;25.80;50.00;;;;;;4885666;29;20048;-77
2023/08/08 13:26:49;;;;;;;0.10;0.10;;;25.60;49.10;;;;;;4885719;29;20031;-77
2023/08/08 13:29:15;;;;;;;0.00;0.00;;;25.80;49.30;;;;;;4902655;29;20036;-77
2023/08/08 13:31:41;;;;;;;0.10;0.10;;;25.90;50.10;;;;;;4902354;29;20053;-78
2023/08/08 13:34:06;;;;;;;0.00;0.00;;;25.80;50.00;;;;;;4902362;29;20036;-78
2023/08/08 13:36:32;;;;;;;0.10;0.10;;;25.80;50.40;;;;;;4902499;29;20029;-77
2023/08/08 13:38:58;;;;;;;0.00;0.00;;;26.00;50.10;;;;;;4885561;29;20152;-77
2023/08/08 13:41:24;;;;;;;0.00;0.00;;;26.10;50.50;;;;;;4902437;29;20443;-77
2023/08/08 13:43:49;;;;;;;0.00;0.00;;;26.10;49.00;;;;;;4902380;29;20080;-77
2023/08/08 13:46:15;;;;;;;0.05;0.05;;;26.00;50.00;;;;;;4902464;29;20025;-77
2023/08/08 13:48:40;;;;;;;0.00;0.00;;;26.00;50.10;;;;;;4902402;29;20057;-77
2023/08/08 13:51:06;;;;;;;0.05;0.05;;;25.90;49.70;;;;;;4885400;29;20064;-78
2023/08/08 13:53:32;;;;;;;0.00;0.00;;;25.90;49.60;;;;;;4885400;29;20397;-77
2023/08/08 13:55:57;;;;;;;0.00;0.00;;;25.80;50.90;;;;;;4902282;29;20025;-78
2023/08/08 13:58:23;;;;;;;0.00;0.00;;;25.70;51.40;;;;;;4901592;29;20021;-77
2023/08/08 14:00:49;;;;;;;0.00;0.00;;;25.70;51.30;;;;;;4901920;29;20012;-78
2023/08/08 14:03:15;;;;;;;0.05;0.00;;;25.60;50.90;;;;;;4885312;29;20627;-77
2023/08/08 14:05:41;;;;;;;0.00;0.00;;;25.70;50.80;;;;;;4905042;29;20048;-78
2023/08/08 14:08:06;;;;;;;0.00;0.00;;;25.70;50.80;;;;;;4905869;29;20028;-78
2023/08/08 14:10:32;;;;;;;0.00;0.00;;;25.80;50.50;;;;;;4905978;29;20135;-78
2023/08/08 14:12:58;;;;;;;0.00;0.00;;;25.80;50.40;;;;;;4905994;29;20051;-77
2023/08/08 14:15:23;;;;;;;0.10;0.10;;;25.90;49.70;;;;;;4905917;29;20039;-77
2023/08/08 14:17:49;;;;;;;0.00;0.00;;;26.30;49.70;;;;;;4905903;29;20064;-77
2023/08/08 14:20:15;;;;;;;0.10;0.10;;;26.40;49.90;;;;;;4905400;29;20032;-77
2023/08/08 14:22:46;;;;;;;0.10;0.10;;;26.30;48.70;;;;;;4888811;29;20028;-77
2023/08/08 14:25:12;;;;;;;0.10;0.10;;;26.30;49.40;;;;;;4905756;29;20024;-77
2023/08/08 14:27:37;;;;;;;0.10;0.10;;;26.60;49.00;;;;;;4905555;29;20107;-77
2023/08/08 14:30:04;;;;;;;0.00;0.00;;;26.60;48.60;;;;;;4888732;29;20035;-77
2023/08/08 14:32:30;;;;;;;0.10;0.10;;;26.80;49.10;;;;;;4888506;29;20080;-77
2023/08/08 14:34:55;;;;;;;0.00;0.00;;;26.50;48.40;;;;;;4905663;29;20390;-77
2023/08/08 14:37:21;;;;;;;0.00;0.00;;;26.20;49.80;;;;;;4905400;29;20033;-77
2023/08/08 14:39:47;;;;;;;0.00;0.00;;;25.80;50.20;;;;;;4905479;29;20033;-77
2023/08/08 14:42:13;;;;;;;0.00;0.00;;;25.70;51.10;;;;;;4905401;29;20116;-77
2023/08/08 14:44:39;;;;;;;0.00;0.00;;;25.80;51.10;;;;;;4905469;29;20048;-78
2023/08/08 14:47:05;;;;;;;0.00;0.00;;;25.90;51.40;;;;;;4907356;29;20032;-77
2023/08/08 14:49:31;;;;;;;0.03;0.03;;;26.00;51.60;;;;;;4888446;29;20032;-77
2023/08/08 14:51:56;;;;;;;0.00;0.00;;;26.00;50.50;;;;;;4905123;29;20043;-77
2023/08/08 14:54:22;;;;;;;0.00;0.00;;;26.10;51.30;;;;;;4905398;29;20035;-77
2023/08/08 14:56:48;;;;;;;0.00;0.00;;;26.10;50.90;;;;;;4888492;29;20120;-77
2023/08/08 14:59:13;;;;;;;0.00;0.00;;;26.10;49.60;;;;;;4905175;29;20449;-77
2023/08/08 15:01:39;;;;;;;0.00;0.00;;;26.10;50.30;;;;;;4887930;29;20029;-77
2023/08/08 15:04:05;;;;;;;0.00;0.00;;;26.10;50.50;;;;;;4905114;29;20035;-77
2023/08/08 15:06:31;;;;;;;0.10;0.03;;;26.00;50.90;;;;;;4904939;29;20072;-77
2023/08/08 15:08:57;;;;;;;0.00;0.00;;;25.80;51.80;;;;;;4904957;29;20029;-77
2023/08/08 15:11:23;;;;;;;0.00;0.00;;;25.70;52.10;;;;;;4904939;29;20083;-77
2023/08/08 15:13:48;;;;;;;0.00;0.00;;;25.80;51.70;;;;;;4904920;29;20471;-77
2023/08/08 15:16:14;;;;;;;0.00;0.00;;;25.80;51.80;;;;;;4904405;29;20032;-77
2023/08/08 15:18:40;;;;;;;0.10;0.00;;;25.90;52.00;;;;;;4887697;29;20031;-78
2023/08/08 15:21:06;;;;;;;0.00;0.00;;;25.90;52.10;;;;;;4904571;29;20059;-78
2023/08/08 15:23:31;;;;;;;0.00;0.00;;;25.90;52.00;;;;;;4904722;29;20411;-78
2023/08/08 15:25:59;;;;;;;0.00;0.00;;;26.00;52.10;;;;;;4904587;29;20024;-78
2023/08/08 15:28:25;;;;;;;0.00;0.00;;;26.00;51.60;;;;;;4904653;29;20100;-78
2023/08/08 15:30:51;;;;;;;0.00;0.00;;;26.00;51.50;;;;;;4895571;29;20044;-78
2023/08/08 15:33:17;;;;;;;0.00;0.00;;;25.90;52.20;;;;;;4904366;29;20084;-78
2023/08/08 15:35:43;;;;;;;0.00;0.00;;;25.90;50.90;;;;;;4904428;29;20073;-78
2023/08/08 15:38:09;;;;;;;0.00;0.00;;;25.90;52.10;;;;;;4904468;29;20021;-77
2023/08/08 15:40:35;;;;;;;0.00;0.00;;;25.80;51.60;;;;;;4904553;29;20039;-78
2023/08/08 15:43:01;;;;;;;0.00;0.00;;;25.90;51.40;;;;;;4904431;29;20045;-78
2023/08/08 15:45:26;;;;;;;0.00;0.00;;;25.90;51.30;;;;;;4904313;29;20514;-78
2023/08/08 15:47:53;;;;;;;0.00;0.00;;;25.80;51.60;;;;;;4904087;29;20036;-77
2023/08/08 15:50:18;;;;;;;0.00;0.00;;;25.70;51.30;;;;;;4887236;29;20029;-78
2023/08/08 15:52:44;;;;;;;0.10;0.10;;;25.60;53.20;;;;;;4887479;29;20042;-78
2023/08/08 15:55:10;;;;;;;0.00;0.00;;;25.70;53.00;;;;;;4904083;29;20488;-77
2023/08/08 15:57:36;;;;;;;0.00;0.00;;;25.70;52.70;;;;;;4904033;29;20043;-78
2023/08/08 16:00:03;;;;;;;0.00;0.00;;;25.60;52.90;;;;;;4903965;29;20080;-77
2023/08/08 16:02:30;;;;;;;0.00;0.00;;;25.70;53.40;;;;;;4900637;29;20040;-78
2023/08/08 16:04:57;;;;;;;0.00;0.00;;;25.50;53.40;;;;;;4895142;29;20025;-77
2023/08/08 16:07:23;;;;;;;0.00;0.00;;;25.40;52.80;;;;;;4903611;29;20391;-77
2023/08/08 16:09:48;;;;;;;0.00;0.00;;;25.40;52.90;;;;;;4903783;29;20029;-77
2023/08/08 16:12:14;;;;;;;0.00;0.00;;;25.30;52.70;;;;;;4903776;29;20064;-77
2023/08/08 16:14:40;;;;;;;0.00;0.00;;;25.40;53.30;;;;;;4903837;29;20025;-77
2023/08/08 16:17:06;;;;;;;0.00;0.00;;;25.20;54.10;;;;;;4903788;29;20036;-78
2023/08/08 16:19:32;;;;;;;0.00;0.00;;;25.20;54.10;;;;;;4903418;29;20115;-77
2023/08/08 16:21:58;;;;;;;0.00;0.00;;;25.20;53.90;;;;;;4903690;29;20063;-78
2023/08/08 16:24:23;;;;;;;0.00;0.00;;;25.10;54.00;;;;;;4886714;29;20488;-77
2023/08/08 16:26:49;;;;;;;0.00;0.00;;;25.00;54.30;;;;;;4903153;29;20029;-77
2023/08/08 16:29:15;;;;;;;0.00;0.00;;;25.00;55.00;;;;;;4903300;29;20031;-77
2023/08/08 16:31:41;;;;;;;0.00;0.00;;;25.10;54.20;;;;;;4903155;29;20048;-77
2023/08/08 16:34:07;;;;;;;0.00;0.00;;;25.10;53.90;;;;;;4886633;29;20395;-78
2023/08/08 16:36:32;;;;;;;0.00;0.00;;;24.90;53.60;;;;;;4903474;29;20042;-78
2023/08/08 16:38:58;;;;;;;0.00;0.00;;;24.90;54.80;;;;;;4903358;29;20024;-78
2023/08/08 16:41:24;;;;;;;0.00;0.00;;;24.90;54.50;;;;;;4903219;29;20033;-77
2023/08/08 16:44:04;;;;;;;0.00;0.00;;;25.10;54.90;;;;;;4903428;29;20021;-77
2023/08/08 16:46:30;;;;;;;0.00;0.00;;;25.10;54.50;;;;;;4903146;29;20032;-77
2023/08/08 16:48:56;;;;;;;0.00;0.00;;;25.20;54.60;;;;;;4905356;29;20033;-78
2023/08/08 16:51:22;;;;;;;0.00;0.00;;;25.20;54.60;;;;;;4902946;29;20028;-78
2023/08/08 16:53:47;;;;;;;0.00;0.00;;;25.30;54.50;;;;;;4903349;29;20024;-78
2023/08/08 16:56:13;;;;;;;0.00;0.00;;;25.30;55.20;;;;;;4902961;29;20036;-78
2023/08/08 16:58:39;;;;;;;0.00;0.00;;;25.20;55.20;;;;;;4903037;29;20156;-78
2023/08/08 17:01:05;;;;;;;0.00;0.00;;;25.30;55.90;;;;;;4902651;29;20117;-77
2023/08/08 17:03:32;;;;;;;0.00;0.00;;;25.40;54.30;;;;;;4902924;29;20064;-77
2023/08/08 17:05:57;;;;;;;0.00;0.00;;;25.60;54.00;;;;;;4902795;29;20052;-77
2023/08/08 17:08:23;;;;;;;0.00;0.00;;;25.50;53.90;;;;;;4885844;29;20035;-77
2023/08/08 17:10:49;;;;;;;0.00;0.00;;;25.40;54.00;;;;;;4903066;29;20032;-77
2023/08/08 17:13:15;;;;;;;0.00;0.00;;;25.30;54.90;;;;;;4886030;29;20064;-77